Time;durP1;ratioP1;P1;durP2;ratioP2;P2;SDS_P1;SDS_P2;PMS_P1;PMS_P2;Temp;Humidity;BMP_temperature;BMP_pressure;BME280_temperature;BME280_humidity;BME280_pressure;Samples;Min_cycle;Max_cycle;Signal;HPM_P1;HPM_P2
2021/12/14 00:00:33;;;;;;;96.13;8.05;;;;;;;2.94;100.00;96815.75;5072727;28;24419;-74
2021/12/14 00:03:01;;;;;;;121.68;9.20;;;;;;;2.84;100.00;96816.75;5073168;28;24425;-73
2021/12/14 00:05:29;;;;;;;66.57;6.53;;;;;;;2.80;100.00;96820.22;5072052;28;24426;-74
2021/12/14 00:08:01;;;;;;;128.20;8.50;;;;;;;2.74;100.00;96828.81;5072599;28;24438;-74
2021/12/14 00:13:19;;;;;;;74.72;7.35;;;;;;;2.56;100.00;96827.41;5072435;28;24434;-74
2021/12/14 00:15:46;;;;;;;96.30;8.30;;;;;;;2.50;100.00;96824.94;5071906;28;24532;-73
2021/12/14 00:18:13;;;;;;;87.15;7.88;;;;;;;2.44;100.00;96825.00;5071701;28;24418;-74
2021/12/14 00:20:44;;;;;;;52.05;5.90;;;;;;;2.44;100.00;96822.44;5072300;28;24434;-74
2021/12/14 00:26:01;;;;;;;71.13;7.35;;;;;;;2.55;100.00;96828.25;5071827;28;24982;-74
2021/12/14 00:28:32;;;;;;;10.63;4.75;;;;;;;2.67;100.00;96827.25;5071900;28;24449;-74
2021/12/14 00:31:03;;;;;;;65.07;7.10;;;;;;;2.60;100.00;96830.78;5072601;28;24418;-74
2021/12/14 00:33:34;;;;;;;110.10;7.68;;;;;;;2.47;100.00;96827.53;5073296;28;24871;-74
2021/12/14 00:36:02;;;;;;;89.07;6.93;;;;;;;2.39;100.00;96834.47;5073544;28;24423;-73
2021/12/14 00:38:31;;;;;;;95.67;6.57;;;;;;;2.38;100.00;96831.06;5072993;28;24464;-73
2021/12/14 00:41:02;;;;;;;110.43;7.80;;;;;;;2.34;100.00;96824.31;5071590;28;24427;-73
2021/12/14 00:43:28;;;;;;;42.15;5.22;;;;;;;2.39;100.00;96825.06;5071885;28;24442;-73
2021/12/14 00:45:55;;;;;;;133.95;7.82;;;;;;;2.38;100.00;96827.66;5071459;28;24472;-75
2021/12/14 00:48:22;;;;;;;173.40;9.73;;;;;;;2.27;100.00;96832.91;5071726;28;24530;-74
2021/12/14 00:50:52;;;;;;;151.65;8.07;;;;;;;2.23;100.00;96838.94;5071564;28;24422;-75
2021/12/14 00:53:19;;;;;;;132.70;6.55;;;;;;;2.21;100.00;96837.25;5071529;28;24450;-75
2021/12/14 00:55:50;;;;;;;136.75;7.32;;;;;;;2.14;100.00;96839.88;5071461;28;24472;-74
2021/12/14 00:58:17;;;;;;;129.93;7.45;;;;;;;2.15;100.00;96845.84;5071617;28;24423;-74
2021/12/14 01:00:48;;;;;;;126.82;7.00;;;;;;;2.10;100.00;96843.34;5071611;28;24426;-74
2021/12/14 01:03:15;;;;;;;158.23;7.45;;;;;;;2.06;100.00;96844.25;5071363;28;24418;-74
2021/12/14 01:05:44;;;;;;;190.27;9.65;;;;;;;2.00;100.00;96851.13;5070922;28;24423;-74
2021/12/14 01:08:15;;;;;;;143.13;7.40;;;;;;;1.97;100.00;96854.59;5071231;28;24422;-74
2021/12/14 01:10:47;;;;;;;136.40;7.30;;;;;;;2.01;100.00;96860.50;5071377;28;24426;-73
2021/12/14 01:13:19;;;;;;;95.47;6.15;;;;;;;1.92;100.00;96857.19;5071276;28;24773;-73
2021/12/14 01:15:53;;;;;;;109.78;6.88;;;;;;;1.79;100.00;96858.19;5070787;28;24963;-74
2021/12/14 01:18:34;;;;;;;136.88;7.30;;;;;;;1.67;100.00;96860.88;5070632;28;24422;-74
2021/12/14 01:21:11;;;;;;;112.90;5.88;;;;;;;1.64;100.00;96866.03;5071634;28;24529;-74
2021/12/14 01:23:38;;;;;;;66.47;5.82;;;;;;;1.61;100.00;96860.94;5071906;28;24425;-73
2021/12/14 01:26:09;;;;;;;59.80;5.55;;;;;;;1.56;100.00;96867.78;5074309;28;24776;-74
2021/12/14 01:28:39;;;;;;;90.80;5.53;;;;;;;1.53;100.00;96866.13;5073912;28;24466;-74
2021/12/14 01:31:14;;;;;;;155.88;6.68;;;;;;;1.53;100.00;96868.69;5072093;28;24472;-74
2021/12/14 01:33:43;;;;;;;107.45;5.63;;;;;;;1.54;100.00;96875.47;5070938;28;24809;-73
2021/12/14 01:36:23;;;;;;;107.72;5.03;;;;;;;1.53;100.00;96878.88;5070572;28;24411;-74
2021/12/14 01:39:09;;;;;;;98.65;5.30;;;;;;;1.50;100.00;96878.06;5070773;28;24768;-74
2021/12/14 01:41:36;;;;;;;80.25;4.40;;;;;;;1.51;100.00;96877.19;5073204;28;24973;-74
2021/12/14 01:44:05;;;;;;;95.85;3.95;;;;;;;1.44;100.00;96871.31;5073390;28;24956;-75
2021/12/14 01:46:34;;;;;;;77.80;3.78;;;;;;;1.40;100.00;96880.69;5073031;28;24423;-74
2021/12/14 01:49:06;;;;;;;37.10;2.80;;;;;;;1.45;100.00;96878.13;5073351;28;24863;-74
2021/12/14 01:51:35;;;;;;;70.70;3.50;;;;;;;1.55;100.00;96879.69;5072908;28;24441;-73
2021/12/14 01:54:03;;;;;;;87.50;3.60;;;;;;;1.47;100.00;96875.53;5071344;28;24430;-74
2021/12/14 01:56:31;;;;;;;33.15;2.72;;;;;;;1.58;100.00;96868.63;5072847;28;24883;-74
2021/12/14 01:59:01;;;;;;;44.97;2.63;;;;;;;1.53;100.00;96858.47;5072483;28;24438;-74
2021/12/14 02:01:37;;;;;;;28.70;2.83;;;;;;;1.54;100.00;96865.25;5072391;28;24838;-74
2021/12/14 02:04:14;;;;;;;68.28;3.30;;;;;;;1.41;100.00;96864.53;5070410;28;25055;-74
2021/12/14 02:06:41;;;;;;;53.10;2.70;;;;;;;1.49;100.00;96866.19;5070210;28;24415;-74
2021/12/14 02:09:12;;;;;;;60.22;3.33;;;;;;;1.44;100.00;96868.75;5070319;28;24971;-74
2021/12/14 02:11:42;;;;;;;13.35;2.20;;;;;;;1.48;100.00;96857.66;5070500;28;24414;-74
2021/12/14 02:14:09;;;;;;;4.68;2.20;;;;;;;1.68;100.00;96862.56;5070349;28;24991;-74
2021/12/14 02:16:38;;;;;;;5.22;2.45;;;;;;;1.81;100.00;96855.59;5069839;28;24827;-73
2021/12/14 02:19:07;;;;;;;42.78;2.63;;;;;;;1.90;100.00;96863.19;5070222;28;25044;-74
2021/12/14 02:21:35;;;;;;;6.53;1.85;;;;;;;1.97;100.00;96861.41;5072667;28;24422;-74
2021/12/14 02:24:06;;;;;;;14.23;1.92;;;;;;;2.09;100.00;96864.66;5072962;28;24419;-74
2021/12/14 02:26:36;;;;;;;20.70;1.73;;;;;;;1.98;100.00;96871.59;5073124;28;24865;-74
2021/12/14 02:29:05;;;;;;;65.45;2.92;;;;;;;1.96;100.00;96873.31;5071319;28;24823;-74
2021/12/14 02:31:34;;;;;;;15.73;2.10;;;;;;;1.98;100.00;96874.16;5070499;28;24670;-73
2021/12/14 02:34:02;;;;;;;6.40;2.17;;;;;;;1.97;100.00;96879.31;5070461;28;24418;-73
2021/12/14 02:36:32;;;;;;;24.30;1.88;;;;;;;2.03;100.00;96871.53;5070034;28;24425;-73
2021/12/14 02:39:07;;;;;;;6.53;1.90;;;;;;;2.00;100.00;96864.75;5071437;28;24472;-74
2021/12/14 02:41:42;;;;;;;17.80;2.03;;;;;;;2.10;100.00;96871.44;5071983;28;24784;-74
2021/12/14 02:44:10;;;;;;;13.27;2.20;;;;;;;2.12;100.00;96874.00;5075640;28;24476;-74
2021/12/14 02:46:40;;;;;;;14.53;1.93;;;;;;;2.04;100.00;96876.66;5075830;28;24434;-74
2021/12/14 02:49:11;;;;;;;12.27;1.55;;;;;;;2.16;100.00;96870.53;5074098;28;24967;-74
2021/12/14 02:51:41;;;;;;;16.02;1.60;;;;;;;2.12;100.00;96864.63;5073968;28;24773;-74
2021/12/14 02:54:13;;;;;;;24.20;2.05;;;;;;;1.85;100.00;96865.78;5075184;28;24434;-74
2021/12/14 02:56:41;;;;;;;15.77;1.92;;;;;;;1.72;100.00;96863.38;5074015;28;24480;-75
2021/12/14 02:59:11;;;;;;;11.30;1.70;;;;;;;1.74;100.00;96857.38;5073865;28;24421;-73
2021/12/14 03:01:38;;;;;;;40.60;2.67;;;;;;;1.52;100.00;96855.91;5073693;28;24964;-74
2021/12/14 03:04:08;;;;;;;87.82;4.13;;;;;;;1.31;100.00;96850.16;5074107;28;24468;-74
2021/12/14 03:06:44;;;;;;;58.47;3.40;;;;;;;1.35;100.00;96854.38;5075120;28;24785;-74
2021/12/14 03:09:30;;;;;;;99.20;4.00;;;;;;;1.39;100.00;96850.09;5099012;28;24555;-74
2021/12/14 03:11:58;;;;;;;150.13;5.23;;;;;;;1.33;100.00;96850.13;5106848;28;24433;-74
2021/12/14 03:14:25;;;;;;;12.18;1.60;;;;;;;1.41;100.00;96844.13;5111801;28;24441;-73
2021/12/14 03:16:52;;;;;;;45.83;2.58;;;;;;;1.49;100.00;96843.19;5106684;28;24425;-74
2021/12/14 03:19:18;;;;;;;110.28;4.07;;;;;;;1.33;100.00;96850.97;5121843;22;24447;-78
2021/12/14 03:21:46;;;;;;;119.70;4.70;;;;;;;1.24;100.00;96853.63;5076683;28;24449;-78
2021/12/14 03:24:16;;;;;;;103.72;3.90;;;;;;;1.23;100.00;96849.38;5081566;28;24441;-78
2021/12/14 03:26:47;;;;;;;158.13;5.93;;;;;;;1.15;100.00;96853.69;5088261;28;24441;-76
2021/12/14 03:29:18;;;;;;;150.02;5.90;;;;;;;1.10;100.00;96861.38;5096893;28;24441;-77
2021/12/14 03:31:48;;;;;;;41.55;2.67;;;;;;;1.23;100.00;96861.31;5096259;28;24429;-78
2021/12/14 03:34:18;;;;;;;30.05;2.72;;;;;;;1.38;100.00;96863.72;5096556;28;24834;-78
2021/12/14 03:36:50;;;;;;;15.10;2.22;;;;;;;1.51;100.00;96860.16;5096350;28;24433;-78
2021/12/14 03:39:24;;;;;;;160.63;5.70;;;;;;;1.42;100.00;96862.81;5096363;28;24427;-78
2021/12/14 03:41:53;;;;;;;232.13;7.72;;;;;;;1.21;100.00;96861.31;5095633;28;24426;-78
2021/12/14 03:44:24;;;;;;;210.63;6.40;;;;;;;1.18;100.00;96872.38;5087457;28;24437;-78
2021/12/14 03:46:53;;;;;;;166.32;5.53;;;;;;;1.16;100.00;96868.16;5096111;28;24421;-78
2021/12/14 03:49:22;;;;;;;61.33;3.08;;;;;;;1.16;100.00;96869.00;5094051;28;24453;-78
2021/12/14 03:51:51;;;;;;;138.95;5.63;;;;;;;1.12;100.00;96866.50;5087574;28;24456;-78
2021/12/14 03:54:20;;;;;;;122.53;4.35;;;;;;;1.09;100.00;96869.06;5094823;28;24977;-78
2021/12/14 03:56:47;;;;;;;73.88;3.42;;;;;;;1.15;100.00;96874.09;5095807;28;24426;-78
2021/12/14 03:59:14;;;;;;;124.97;4.22;;;;;;;1.03;100.00;96874.22;5096236;28;24422;-78
2021/12/14 04:01:44;;;;;;;43.13;2.05;;;;;;;0.99;100.00;96877.66;5095777;28;24422;-78
2021/12/14 04:04:18;;;;;;;39.45;2.22;;;;;;;1.16;100.00;96871.56;5095583;28;24951;-77
2021/12/14 04:06:48;;;;;;;55.95;2.38;;;;;;;1.09;100.00;96867.34;5086600;28;24427;-78
2021/12/14 04:09:17;;;;;;;93.47;3.08;;;;;;;0.96;100.00;96853.00;5083204;28;24474;-78
2021/12/14 04:11:46;;;;;;;54.10;2.33;;;;;;;0.96;100.00;96837.69;5093841;28;24430;-78
2021/12/14 04:14:13;;;;;;;121.43;4.78;;;;;;;0.96;100.00;96846.22;5095953;28;24425;-78
2021/12/14 04:16:42;;;;;;;84.63;3.03;;;;;;;0.84;100.00;96840.34;5096099;28;24422;-78
2021/12/14 04:19:12;;;;;;;83.60;2.63;;;;;;;0.84;100.00;96843.75;5090614;28;24434;-78
2021/12/14 04:21:42;;;;;;;82.70;3.27;;;;;;;0.81;100.00;96845.47;5086763;28;24453;-78
2021/12/14 04:24:10;;;;;;;73.70;2.67;;;;;;;0.85;100.00;96845.41;5095460;28;24426;-78
2021/12/14 04:26:43;;;;;;;55.90;2.70;;;;;;;0.68;100.00;96848.09;5095175;28;24429;-78
2021/12/14 04:29:12;;;;;;;93.00;3.60;;;;;;;0.63;100.00;96856.63;5095262;28;24430;-78
2021/12/14 04:31:40;;;;;;;11.43;1.30;;;;;;;0.72;100.00;96848.94;5095539;28;24477;-78
2021/12/14 04:34:06;;;;;;;30.80;2.47;;;;;;;0.82;100.00;96848.03;5095119;28;24433;-78
2021/12/14 04:36:33;;;;;;;20.40;1.40;;;;;;;0.90;100.00;96843.69;5090882;28;24429;-77
2021/12/14 04:39:28;;;;;;;67.13;2.57;;;;;;;1.03;100.00;96834.22;5074950;28;24527;-78
2021/12/14 04:53:04;;;;;;;15.20;1.50;;;;;;;0.91;100.00;96830.09;5048613;28;24434;-78
2021/12/14 04:55:31;;;;;;;116.25;5.43;;;;;;;0.84;100.00;96830.16;5074065;28;24411;-78
2021/12/14 04:57:58;;;;;;;51.10;3.22;;;;;;;0.88;100.00;96826.72;5074738;28;24434;-78
2021/12/14 05:00:30;;;;;;;23.15;4.93;;;;;;;0.98;100.00;96825.78;5074321;28;24796;-78
2021/12/14 05:02:59;;;;;;;33.50;4.93;;;;;;;0.98;100.00;96828.34;5074178;28;25030;-78
2021/12/14 05:05:28;;;;;;;31.95;3.72;;;;;;;0.91;100.00;96819.03;5073226;28;24435;-77
2021/12/14 05:10:56;;;;;;;59.00;5.78;;;;;;;0.73;100.00;96818.31;5031943;28;24450;-78
2021/12/14 05:13:24;;;;;;;58.85;3.38;;;;;;;0.70;100.00;96817.50;5072547;28;24435;-78
2021/12/14 05:15:52;;;;;;;113.22;5.38;;;;;;;0.53;100.00;96807.44;5092542;28;24422;-78
2021/12/14 05:18:19;;;;;;;76.13;4.30;;;;;;;0.53;100.00;96815.06;5094535;28;24421;-77
2021/12/14 05:20:48;;;;;;;101.43;4.47;;;;;;;0.48;100.00;96826.97;5094296;28;24425;-78
2021/12/14 05:23:20;;;;;;;73.28;3.83;;;;;;;0.47;100.00;96830.41;5094081;28;24991;-77
2021/12/14 05:25:47;;;;;;;112.28;4.80;;;;;;;0.38;100.00;96830.47;5094973;28;24444;-78
2021/12/14 05:28:15;;;;;;;14.45;2.53;;;;;;;0.48;100.00;96834.63;5093848;28;24433;-78
2021/12/14 05:30:45;;;;;;;38.40;3.65;;;;;;;0.55;100.00;96823.53;5093870;28;24591;-77
2021/12/14 05:33:17;;;;;;;43.13;3.70;;;;;;;0.46;100.00;96821.06;5093531;28;24529;-79
2021/12/14 05:35:46;;;;;;;14.52;1.65;;;;;;;0.45;100.00;96806.63;5077249;28;24895;-78
2021/12/14 05:38:15;;;;;;;54.40;3.33;;;;;;;0.35;100.00;96793.09;5087846;28;24431;-78
2021/12/14 05:40:57;;;;;;;14.15;1.90;;;;;;;0.33;100.00;96797.34;5079919;28;24983;-78
2021/12/14 05:43:25;;;;;;;18.67;2.10;;;;;;;0.32;100.00;96807.56;5073676;28;24506;-78
2021/12/14 05:45:54;;;;;;;21.50;2.45;;;;;;;0.33;100.00;96804.16;5073585;28;24417;-78
2021/12/14 05:48:25;;;;;;;16.27;7.72;;;;;;;0.32;100.00;96805.84;5073488;28;24493;-78
2021/12/14 05:50:55;;;;;;;42.97;18.88;;;;;;;0.29;100.00;96808.41;5072187;28;24501;-79
2021/12/14 05:53:24;;;;;;;39.78;6.88;;;;;;;0.17;100.00;96816.97;5072358;28;24947;-79
2021/12/14 05:55:51;;;;;;;14.85;5.82;;;;;;;0.15;100.00;96828.91;5071929;28;24410;-78
2021/12/14 05:58:21;;;;;;;24.15;16.45;;;;;;;0.20;100.00;96831.41;5072977;28;24423;-78
2021/12/14 06:00:50;;;;;;;21.02;6.57;;;;;;;0.26;100.00;96820.31;5072996;28;24856;-78
2021/12/14 06:03:19;;;;;;;7.13;5.10;;;;;;;0.45;100.00;96820.22;5073751;28;24458;-78
2021/12/14 06:05:47;;;;;;;8.50;2.47;;;;;;;0.63;100.00;96800.53;5074005;28;24410;-78
2021/12/14 06:08:23;;;;;;;4.60;1.70;;;;;;;0.62;100.00;96799.69;5073555;28;24836;-77
2021/12/14 06:10:51;;;;;;;22.35;2.90;;;;;;;0.64;100.00;96802.25;5073390;28;24446;-78
2021/12/14 06:13:18;;;;;;;60.00;13.02;;;;;;;0.46;100.00;96810.88;5073539;28;24430;-78
2021/12/14 06:15:46;;;;;;;16.50;9.40;;;;;;;0.52;100.00;96803.19;5072970;28;24414;-78
2021/12/14 06:18:13;;;;;;;7.20;4.72;;;;;;;0.64;100.00;96810.75;5073060;28;24425;-77
2021/12/14 06:20:43;;;;;;;64.95;25.33;;;;;;;0.40;100.00;96805.81;5073253;28;24438;-78
2021/12/14 06:23:12;;;;;;;13.93;5.78;;;;;;;0.35;100.00;96800.75;5073872;28;24831;-78
2021/12/14 06:25:39;;;;;;;11.82;5.57;;;;;;;0.43;100.00;96806.63;5072949;28;24534;-78
2021/12/14 06:28:06;;;;;;;12.63;4.10;;;;;;;0.45;100.00;96802.38;5073578;28;24439;-77
2021/12/14 06:30:35;;;;;;;21.55;2.60;;;;;;;0.56;100.00;96794.66;5073813;28;24812;-77
2021/12/14 06:33:05;;;;;;;1.67;1.48;;;;;;;0.66;100.00;96795.44;5073016;28;24481;-78
2021/12/14 06:35:35;;;;;;;13.80;2.95;;;;;;;0.35;100.00;96797.34;5072344;28;24987;-78
2021/12/14 06:38:29;;;;;;;8.15;2.70;;;;;;;0.29;100.00;96810.13;5073267;28;24439;-78
2021/12/14 06:41:06;;;;;;;3.13;2.70;;;;;;;0.31;100.00;96804.16;5057406;28;24528;-79
2021/12/14 06:43:35;;;;;;;4.22;2.20;;;;;;;0.47;100.00;96792.16;5077579;28;24430;-78
2021/12/14 06:46:05;;;;;;;3.33;3.03;;;;;;;0.39;100.00;96799.03;5072749;28;24433;-78
2021/12/14 06:48:38;;;;;;;7.20;6.57;;;;;;;0.40;100.00;96798.16;5072934;28;24422;-78
2021/12/14 06:51:07;;;;;;;3.63;2.22;;;;;;;0.54;100.00;96786.16;5073911;28;24461;-79
2021/12/14 06:53:36;;;;;;;5.20;2.30;;;;;;;0.38;100.00;96777.78;5073322;28;24441;-78
2021/12/14 06:56:06;;;;;;;9.85;6.38;;;;;;;0.30;100.00;96784.66;5082594;28;24438;-78
2021/12/14 06:58:36;;;;;;;3.92;2.60;;;;;;;0.47;100.00;96775.16;5083754;28;24839;-77
2021/12/14 07:01:09;;;;;;;12.75;8.65;;;;;;;0.41;100.00;96787.13;5067723;28;24528;-78
2021/12/14 07:03:39;;;;;;;4.05;3.13;;;;;;;0.43;100.00;96782.84;5067737;28;24439;-78
2021/12/14 07:06:06;;;;;;;3.92;3.22;;;;;;;0.54;100.00;96781.06;5072800;28;24422;-77
2021/12/14 07:08:33;;;;;;;2.78;2.15;;;;;;;0.56;100.00;96784.47;5067887;28;24422;-78
2021/12/14 07:11:01;;;;;;;2.05;1.80;;;;;;;0.45;100.00;96778.59;5061473;28;24466;-77
2021/12/14 07:13:36;;;;;;;1.73;1.63;;;;;;;0.55;100.00;96771.72;5066895;28;24435;-77
2021/12/14 07:16:04;;;;;;;1.85;1.42;;;;;;;0.66;100.00;96758.03;5051390;28;24442;-78
2021/12/14 07:18:34;;;;;;;1.23;1.13;;;;;;;0.47;100.00;96752.22;5051392;28;24823;-77
2021/12/14 07:21:01;;;;;;;2.95;1.67;;;;;;;0.50;100.00;96761.56;5051134;28;24511;-77
2021/12/14 07:23:32;;;;;;;2.13;1.75;;;;;;;0.52;100.00;96761.53;5056826;28;24455;-78
2021/12/14 07:26:04;;;;;;;2.00;1.58;;;;;;;0.71;100.00;96756.31;5069895;28;24518;-76
2021/12/14 07:28:36;;;;;;;1.45;1.25;;;;;;;0.76;100.00;96766.47;5073070;28;24411;-77
2021/12/14 07:31:11;;;;;;;2.28;1.67;;;;;;;0.59;100.00;96778.47;5074534;28;24532;-77
2021/12/14 07:33:45;;;;;;;1.57;1.30;;;;;;;0.51;100.00;96793.00;5074450;28;24427;-73
2021/12/14 07:36:13;;;;;;;1.20;1.10;;;;;;;0.47;100.00;96798.09;5073315;28;24422;-77
2021/12/14 07:38:43;;;;;;;1.20;1.10;;;;;;;0.54;100.00;96801.47;5073216;28;24871;-77
2021/12/14 07:41:26;;;;;;;3.65;3.30;;;;;;;0.65;100.00;96806.50;5073097;28;24986;-76
2021/12/14 07:43:58;;;;;;;2.75;1.80;;;;;;;0.68;100.00;96809.88;5072967;28;24962;-77
2021/12/14 07:46:30;;;;;;;5.97;4.68;;;;;;;0.81;100.00;96808.06;5072988;28;24753;-77
2021/12/14 07:48:59;;;;;;;5.32;4.80;;;;;;;0.89;100.00;96811.41;5073352;28;24425;-78
2021/12/14 07:51:29;;;;;;;4.55;3.70;;;;;;;1.01;100.00;96800.25;5065661;28;24463;-78
2021/12/14 07:54:01;;;;;;;3.92;2.83;;;;;;;1.07;100.00;96792.53;5052776;28;24430;-77
2021/12/14 07:56:34;;;;;;;17.50;7.18;;;;;;;0.93;100.00;96797.78;5052730;28;24430;-76
2021/12/14 07:59:02;;;;;;;12.77;8.30;;;;;;;0.81;100.00;96799.56;5052694;28;25190;-76
2021/12/14 08:01:29;;;;;;;14.73;11.38;;;;;;;0.71;100.00;96798.81;5052691;28;24415;-77
2021/12/14 08:04:06;;;;;;;3.77;2.73;;;;;;;0.72;100.00;96801.34;5053133;28;24477;-77
2021/12/14 08:06:48;;;;;;;5.40;3.33;;;;;;;0.83;100.00;96810.59;5052727;28;24797;-78
2021/12/14 08:09:19;;;;;;;9.43;6.45;;;;;;;0.86;100.00;96823.34;5062243;28;24427;-78
2021/12/14 08:11:48;;;;;;;5.00;2.85;;;;;;;0.83;100.00;96834.41;5074046;28;24528;-78
2021/12/14 08:14:19;;;;;;;3.55;3.15;;;;;;;0.94;100.00;96821.56;5074826;28;24419;-79
2021/12/14 08:16:49;;;;;;;4.20;3.80;;;;;;;0.98;100.00;96835.16;5075887;28;24418;-78
2021/12/14 08:19:26;;;;;;;4.22;2.10;;;;;;;0.70;100.00;96846.41;5073751;28;24430;-79
2021/12/14 08:21:55;;;;;;;3.22;1.80;;;;;;;0.73;100.00;96840.41;5054952;28;24454;-79
2021/12/14 08:24:21;;;;;;;3.72;2.70;;;;;;;0.93;100.00;96832.63;5054611;28;24423;-78
2021/12/14 08:26:52;;;;;;;4.78;4.20;;;;;;;0.87;100.00;96832.69;5054063;28;25071;-79
2021/12/14 08:29:21;;;;;;;4.50;3.50;;;;;;;0.94;100.00;96839.44;5055153;28;24430;-78
2021/12/14 08:31:50;;;;;;;2.67;2.47;;;;;;;0.80;100.00;96842.06;5058232;28;24478;-76
2021/12/14 08:34:20;;;;;;;4.80;4.32;;;;;;;0.78;100.00;96838.69;5059001;28;24438;-78
2021/12/14 08:36:51;;;;;;;2.17;1.80;;;;;;;0.77;100.00;96839.53;5064436;28;24422;-78
2021/12/14 08:39:21;;;;;;;2.78;1.52;;;;;;;0.75;100.00;96842.97;5069057;28;24484;-77
2021/12/14 08:41:55;;;;;;;1.90;1.80;;;;;;;0.85;100.00;96839.47;5064418;28;24430;-78
2021/12/14 08:44:34;;;;;;;2.55;2.05;;;;;;;1.04;100.00;96833.41;5058617;28;24422;-78
2021/12/14 08:47:00;;;;;;;6.30;3.50;;;;;;;1.13;100.00;96825.66;5057237;28;24480;-78
2021/12/14 08:49:27;;;;;;;2.67;2.35;;;;;;;1.11;100.00;96821.41;5056227;28;24481;-77
2021/12/14 08:51:53;;;;;;;2.25;2.00;;;;;;;1.13;100.00;96824.81;5056862;28;24458;-77
2021/12/14 08:54:25;;;;;;;3.10;2.28;;;;;;;1.18;100.00;96816.22;5055555;28;24510;-76
2021/12/14 08:56:58;;;;;;;5.65;4.32;;;;;;;0.99;100.00;96811.31;5055138;28;24878;-76
2021/12/14 08:59:25;;;;;;;3.80;3.00;;;;;;;1.03;100.00;96818.09;5056537;28;24433;-77
2021/12/14 09:01:53;;;;;;;2.17;1.70;;;;;;;0.96;100.00;96814.72;5056866;28;24419;-77
2021/12/14 09:04:23;;;;;;;3.00;1.70;;;;;;;1.04;100.00;96813.00;5055117;28;24438;-77
2021/12/14 09:06:55;;;;;;;3.53;2.53;;;;;;;1.11;100.00;96819.72;5053708;28;24433;-78
2021/12/14 09:09:23;;;;;;;3.20;2.10;;;;;;;1.24;100.00;96814.50;5063401;28;24454;-78
2021/12/14 09:11:57;;;;;;;2.63;1.48;;;;;;;1.37;100.00;96826.28;5074441;28;24512;-76
2021/12/14 09:14:26;;;;;;;3.42;1.50;;;;;;;1.33;100.00;96828.00;5074684;28;24480;-77
2021/12/14 09:16:57;;;;;;;2.42;1.70;;;;;;;1.43;100.00;96829.63;5070948;28;24427;-78
2021/12/14 09:19:29;;;;;;;5.65;3.60;;;;;;;1.44;100.00;96831.31;5054816;28;24437;-78
2021/12/14 09:21:59;;;;;;;5.72;4.07;;;;;;;1.53;100.00;96822.72;5052034;28;24427;-77
2021/12/14 09:24:28;;;;;;;3.30;1.88;;;;;;;1.61;100.00;96828.59;5052586;28;24419;-77
2021/12/14 09:27:00;;;;;;;2.08;1.27;;;;;;;1.54;100.00;96839.72;5052086;28;24449;-76
2021/12/14 09:29:29;;;;;;;2.50;1.58;;;;;;;1.57;100.00;96839.69;5052094;28;24427;-77
2021/12/14 09:31:58;;;;;;;3.08;2.10;;;;;;;1.65;100.00;96837.91;5051991;28;24852;-76
2021/12/14 09:34:28;;;;;;;5.05;3.00;;;;;;;1.70;100.00;96838.69;5051844;28;24427;-77
2021/12/14 09:36:56;;;;;;;3.42;1.63;;;;;;;1.81;100.00;96836.00;5052309;28;24940;-76
2021/12/14 09:39:27;;;;;;;2.25;1.50;;;;;;;1.98;100.00;96829.88;5051315;28;24439;-77
2021/12/14 09:41:56;;;;;;;3.80;2.00;;;;;;;2.06;100.00;96825.53;5051905;28;24553;-78
2021/12/14 09:44:25;;;;;;;1.50;1.33;;;;;;;2.12;100.00;96831.41;5051853;28;24432;-77
2021/12/14 09:46:55;;;;;;;1.60;1.25;;;;;;;2.29;100.00;96832.88;5051303;28;24948;-77
2021/12/14 09:49:22;;;;;;;2.50;1.40;;;;;;;2.25;100.00;96829.53;5052017;28;24431;-77
2021/12/14 09:51:52;;;;;;;1.60;1.42;;;;;;;2.25;100.00;96839.75;5050307;28;24813;-77
2021/12/14 09:54:24;;;;;;;1.60;1.27;;;;;;;2.50;100.00;96837.72;5051680;28;24423;-76
2021/12/14 09:56:56;;;;;;;1.67;1.50;;;;;;;2.73;100.00;96839.09;5051184;28;24423;-75
2021/12/14 09:59:24;;;;;;;1.30;1.20;;;;;;;2.95;100.00;96843.00;5050957;28;24793;-75
2021/12/14 10:01:56;;;;;;;2.27;1.50;;;;;;;2.86;100.00;96840.63;5051266;28;24420;-75
2021/12/14 10:04:26;;;;;;;1.50;1.38;;;;;;;2.96;100.00;96831.91;5051038;28;24438;-75
2021/12/14 10:06:54;;;;;;;1.55;1.40;;;;;;;3.19;100.00;96828.13;5050694;28;24422;-75
2021/12/14 10:09:23;;;;;;;2.42;1.88;;;;;;;3.12;100.00;96822.28;5050436;28;24988;-76
2021/12/14 10:12:03;;;;;;;6.55;4.05;;;;;;;3.14;100.00;96831.59;5050476;28;24450;-76
2021/12/14 10:14:36;;;;;;;4.80;2.20;;;;;;;3.09;100.00;96830.84;5051374;28;24427;-76
2021/12/14 10:17:05;;;;;;;3.22;2.08;;;;;;;2.95;100.00;96834.50;5051603;28;24983;-76
2021/12/14 10:19:33;;;;;;;5.25;3.38;;;;;;;2.93;100.00;96842.22;5050726;28;24489;-76
2021/12/14 10:22:04;;;;;;;12.60;7.07;;;;;;;2.86;100.00;96833.78;5052518;28;24411;-77
2021/12/14 10:24:31;;;;;;;3.67;2.40;;;;;;;2.84;100.00;96837.22;5053233;28;24426;-75
2021/12/14 10:27:02;;;;;;;5.43;2.92;;;;;;;2.92;100.00;96817.47;5050605;28;24419;-75
2021/12/14 10:29:30;;;;;;;4.40;3.00;;;;;;;2.94;100.00;96815.75;5050801;28;24431;-76
2021/12/14 10:32:02;;;;;;;2.60;2.23;;;;;;;3.08;100.00;96826.59;5050272;28;24494;-76
2021/12/14 10:34:34;;;;;;;2.25;1.80;;;;;;;3.40;100.00;96825.19;5050441;28;24446;-76
2021/12/14 10:37:09;;;;;;;2.28;1.85;;;;;;;3.85;100.00;96817.53;5050545;28;24485;-76
2021/12/14 10:42:36;;;;;;;3.90;1.70;;;;;;;3.96;100.00;96819.88;5050173;28;24543;-76
2021/12/14 10:42:51;;;;;;;2.90;1.70;;;;;;;3.91;100.00;96817.41;5050289;28;24423;-76
2021/12/14 10:45:20;;;;;;;2.63;1.67;;;;;;;3.84;100.00;96810.72;5050211;28;24439;-76
2021/12/14 10:47:47;;;;;;;2.05;1.73;;;;;;;3.84;100.00;96815.84;5050629;28;24419;-76
2021/12/14 10:50:16;;;;;;;3.83;2.10;;;;;;;3.89;100.00;96824.28;5050696;28;24423;-81
2021/12/14 10:52:43;;;;;;;3.03;2.67;;;;;;;3.98;100.00;96818.16;5054184;28;24444;-76
2021/12/14 10:55:14;;;;;;;9.88;7.40;;;;;;;4.09;100.00;96821.34;5050594;28;24427;-76
2021/12/14 10:57:41;;;;;;;13.90;6.73;;;;;;;4.12;100.00;96822.13;5051277;28;24415;-76
2021/12/14 11:00:12;;;;;;;16.67;8.20;;;;;;;4.12;100.00;96822.13;5051699;28;24423;-76
2021/12/14 11:02:42;;;;;;;8.57;3.85;;;;;;;4.15;100.00;96817.78;5052145;28;24419;-76
2021/12/14 11:05:16;;;;;;;25.52;3.53;;;;;;;4.17;100.00;96813.47;5055001;28;24976;-76
2021/12/14 11:07:46;;;;;;;8.03;3.13;;;;;;;4.24;100.00;96815.03;5055432;28;24430;-77
2021/12/14 11:10:15;;;;;;;15.55;7.90;;;;;;;4.34;100.00;96803.72;5070759;28;24975;-76
2021/12/14 11:12:46;;;;;;;5.80;3.58;;;;;;;4.49;100.00;96816.22;5075470;28;24534;-76
2021/12/14 11:15:17;;;;;;;3.75;2.70;;;;;;;4.67;100.00;96802.09;5075240;28;24415;-76
2021/12/14 11:20:36;;;;;;;3.67;2.70;;;;;;;5.13;100.00;96808.72;5054864;28;24435;-77
2021/12/14 11:23:06;;;;;;;7.35;2.78;;;;;;;5.13;100.00;96807.88;5055503;28;24956;-76
2021/12/14 11:25:36;;;;;;;5.70;3.40;;;;;;;5.20;100.00;96805.13;5055622;28;24486;-76
2021/12/14 11:28:06;;;;;;;6.68;3.35;;;;;;;5.28;100.00;96803.19;5056110;28;24450;-76
2021/12/14 11:30:37;;;;;;;4.15;2.95;;;;;;;5.09;100.00;96796.84;5056198;28;24419;-76
2021/12/14 11:33:10;;;;;;;5.00;3.20;;;;;;;5.06;100.00;96791.78;5055893;28;25012;-76
2021/12/14 11:35:40;;;;;;;4.18;2.88;;;;;;;5.13;100.00;96795.03;5055807;28;24447;-76
2021/12/14 11:38:22;;;;;;;4.65;2.60;;;;;;;5.26;100.00;96792.09;5056167;28;24470;-76
2021/12/14 11:40:49;;;;;;;4.53;2.67;;;;;;;5.48;100.00;96794.97;5055833;28;24782;-76
2021/12/14 11:43:19;;;;;;;3.10;2.42;;;;;;;5.57;100.00;96799.03;5055553;28;24422;-76
2021/12/14 11:45:48;;;;;;;3.53;2.80;;;;;;;5.55;100.00;96800.78;5055502;28;24434;-76
2021/12/14 11:48:31;;;;;;;3.25;2.50;;;;;;;5.86;100.00;96805.09;5054609;28;24488;-75
2021/12/14 11:51:01;;;;;;;3.70;2.67;;;;;;;6.07;100.00;96809.69;5054388;28;24442;-76
2021/12/14 11:53:27;;;;;;;4.05;2.55;;;;;;;6.05;100.00;96807.16;5053813;28;24454;-76
2021/12/14 11:55:57;;;;;;;3.85;2.72;;;;;;;6.02;100.00;96799.53;5052929;28;24419;-76
2021/12/14 11:58:30;;;;;;;3.80;2.27;;;;;;;6.05;100.00;96796.03;5054348;28;24519;-77
2021/12/14 12:01:04;;;;;;;5.90;3.80;;;;;;;6.06;100.00;96795.13;5055020;28;24518;-75
2021/12/14 12:03:37;;;;;;;9.45;7.20;;;;;;;5.95;100.00;96790.28;5053998;28;24415;-75